Date,TemperatureHighF,TemperatureAvgF,TemperatureLowF,DewpointHighF,DewpointAvgF,DewpointLowF,HumidityHigh,HumidityAvg,HumidityLow,PressureMaxIn,PressureMinIn,WindSpeedMaxMPH,WindSpeedAvgMPH,GustSpeedMaxMPH,PrecipitationSumIn
2013-1-1,51,46,40,42,38,32,94,75,52,30.27,30.22,12,2,13,0.00
2013-1-2,55,47,41,39,36,33,89,69,46,30.24,30.15,12,2,15,0.00
2013-1-3,54,46,41,42,39,35,92,76,60,30.27,30.16,9,1,9,0.00
2013-1-4,55,48,43,41,39,37,87,71,54,30.29,30.19,12,2,13,0.00
2013-1-5,52,49,46,48,45,40,96,87,76,30.26,30.06,15,2,16,0.20
2013-1-6,50,46,44,47,44,42,95,89,75,30.20,30.04,15,2,17,0.09
2013-1-7,57,49,43,52,46,42,96,89,77,30.28,30.17,9,1,11,0.01
2013-1-8,60,52,47,48,46,44,92,82,64,30.25,30.14,9,1,11,0.00
2013-1-9,51,48,44,50,44,38,95,87,75,30.16,30.02,21,4,24,0.01
2013-1-10,49,45,42,39,36,34,81,72,58,30.21,30.09,18,3,21,0.00
2013-1-11,49,45,42,42,37,32,92,75,63,30.27,30.14,17,1,18,0.00
2013-1-12,49,43,37,38,33,24,88,69,39,30.26,30.16,8,0,8,0.00
2013-1-13,50,42,35,36,28,17,80,58,34,30.27,30.19,14,1,17,0.00
2013-1-14,50,44,38,36,23,16,76,46,31,30.41,30.23,19,2,24,0.00
2013-1-15,52,45,40,37,33,27,87,64,38,30.49,30.41,9,2,11,0.00
2013-1-16,56,46,39,39,36,33,89,69,48,30.44,30.26,8,1,10,0.00
2013-1-17,62,52,44,36,34,32,71,50,35,30.27,30.16,12,2,12,0.00
2013-1-18,64,54,48,40,36,32,72,53,32,30.22,30.14,17,3,18,0.00
2013-1-19,63,54,46,38,36,32,71,50,36,30.24,30.16,15,5,16,0.00
2013-1-20,64,54,47,38,35,31,70,50,31,30.22,30.13,14,6,15,0.00
2013-1-21,63,54,47,41,38,33,69,55,42,30.17,30.08,14,4,16,0.00
2013-1-22,60,54,47,43,40,32,79,60,38,30.12,30.00,18,5,20,0.00
2013-1-23,61,54,50,51,45,32,95,73,39,30.09,29.96,13,3,16,0.16
2013-1-24,58,53,50,51,50,48,95,89,78,30.20,30.07,12,3,13,0.00
2013-1-25,64,56,51,55,52,49,95,87,73,30.20,30.05,14,2,16,0.00
2013-1-26,53,50,48,50,46,42,97,85,72,30.10,30.02,23,6,25,0.00
2013-1-27,52,48,43,44,40,35,85,74,58,30.19,30.09,17,2,20,0.00
2013-1-28,53,48,44,45,42,37,90,78,64,30.31,30.18,17,2,21,0.00
2013-1-29,54,49,45,47,44,41,93,83,69,30.37,30.29,14,1,17,0.00
2013-1-30,61,52,47,49,45,41,94,76,50,30.35,30.27,7,1,9,0.00
2013-1-31,62,54,47,48,45,42,87,73,58,30.29,30.19,9,2,10,0.00
2013-2-1,64,54,48,48,46,44,95,76,54,30.24,30.13,13,3,16,0.00
2013-2-2,54,49,47,49,47,44,97,93,82,30.31,30.23,11,2,12,0.00
2013-2-3,53,49,46,48,45,41,95,85,72,30.27,30.16,11,2,14,0.00
2013-2-4,53,47,46,49,46,44,97,94,84,30.19,30.09,13,3,13,0.00
2013-2-5,52,49,47,49,45,42,94,88,82,30.17,30.09,20,5,22,0.00
2013-2-6,53,48,42,47,44,40,94,86,67,30.21,30.15,16,2,19,0.00
2013-2-7,51,47,42,47,44,39,95,88,68,30.19,30.01,15,2,20,0.31
2013-2-8,50,45,40,45,40,29,100,83,46,30.03,29.95,17,2,19,0.19
2013-2-9,55,48,42,42,36,25,85,65,32,30.11,30.01,12,1,12,0.00
2013-2-10,57,48,42,46,41,33,92,77,45,30.13,30.05,11,1,11,0.00
2013-2-11,62,51,45,48,38,27,94,64,31,30.25,30.08,17,3,18,0.00
2013-2-12,57,48,44,47,45,42,96,88,59,30.37,30.25,10,1,10,0.00
2013-2-13,53,48,44,50,46,43,97,93,83,30.36,30.24,9,1,10,0.01
2013-2-14,67,54,46,49,45,43,97,74,45,30.25,30.17,12,2,12,0.00
2013-2-15,70,60,53,46,43,39,72,53,37,30.27,30.20,12,2,14,0.00
2013-2-16,66,56,49,52,47,42,94,73,53,30.23,30.07,15,4,16,0.00
2013-2-17,54,50,45,47,45,42,95,85,68,30.08,30.00,14,3,15,0.00
2013-2-18,50,47,46,46,42,38,94,81,71,30.06,29.98,18,5,19,0.00
2013-2-19,47,44,40,44,39,34,94,83,68,29.99,29.77,25,5,27,0.34
2013-2-20,53,46,39,44,39,33,87,77,61,30.08,29.86,17,2,21,0.00
2013-2-21,54,48,42,44,40,34,92,75,47,30.18,30.06,18,1,18,0.00
2013-2-22,54,48,44,46,44,40,92,84,64,30.27,30.18,18,2,21,0.00
2013-2-23,52,49,45,48,41,35,96,77,57,30.27,30.19,21,3,25,0.02
2013-2-24,58,50,46,44,34,24,91,57,30,30.26,30.19,18,2,19,0.00
2013-2-25,54,48,44,48,44,42,95,86,73,30.28,30.20,15,2,16,0.00
2013-2-26,59,50,44,44,38,25,92,67,29,30.23,30.17,15,2,18,0.01
2013-2-27,59,50,44,49,45,41,95,83,60,30.38,30.22,9,1,10,0.00
2013-2-28,56,50,48,52,49,47,100,94,84,30.47,30.38,12,2,14,0.00
2013-3-1,69,55,47,55,50,46,98,84,53,30.45,30.25,11,1,13,0.01
2013-3-2,67,55,49,53,50,48,96,82,59,30.25,30.09,10,2,12,0.00
2013-3-3,52,49,47,50,47,44,97,93,89,30.12,30.08,15,4,15,0.00
2013-3-4,50,47,45,45,44,42,95,88,78,30.17,30.08,11,-1,15,0.00
2013-3-5,55,49,44,46,43,40,92,80,68,30.09,29.86,32,5,32,0.09
2013-3-6,53,49,45,49,45,42,94,84,73,30.09,29.86,26,4,32,0.07
2013-3-7,54,47,44,45,43,40,95,85,60,30.01,29.88,10,2,12,0.06
2013-3-8,51,48,45,46,44,42,95,87,79,30.07,29.87,29,6,30,0.00
2013-3-9,57,49,43,48,44,40,93,83,66,30.33,30.07,11,1,13,0.00
2013-3-10,59,51,45,51,47,43,95,87,61,30.36,30.28,9,1,10,0.01
2013-3-11,65,51,45,51,47,44,99,87,52,30.28,30.14,11,3,12,0.01
2013-3-12,61,50,46,55,48,45,100,92,74,30.17,30.11,12,2,12,0.00
2013-3-13,72,53,45,54,49,44,98,87,54,30.17,30.09,12,1,14,0.00
2013-3-14,53,49,46,50,47,45,98,95,87,30.20,30.10,13,2,15,0.01
2013-3-15,61,51,47,53,48,45,97,91,73,30.17,30.07,13,2,14,0.01
2013-3-16,59,51,47,52,48,46,98,90,74,30.14,30.05,17,3,25,0.00
2013-3-17,57,50,46,48,45,43,94,82,67,30.17,30.08,17,2,20,0.00
2013-3-18,55,49,45,48,46,44,95,88,71,30.16,30.06,12,2,15,0.01
2013-3-19,58,50,47,50,46,42,94,86,59,30.16,30.07,13,1,16,0.09
2013-3-20,58,52,48,53,49,43,97,89,68,30.16,30.08,14,3,17,0.07
2013-3-21,54,49,42,47,44,40,97,84,66,30.16,30.04,17,2,18,0.01
2013-3-22,56,50,45,45,41,27,92,71,36,30.14,30.05,16,1,18,0.00
2013-3-23,64,52,46,45,39,26,91,65,26,30.16,30.08,10,1,11,0.00
2013-3-24,55,49,46,48,46,44,95,88,76,30.12,30.01,13,3,15,0.00
2013-3-25,51,48,46,45,44,43,93,88,77,30.06,29.94,17,5,20,0.00
2013-3-26,55,50,47,48,46,44,94,87,75,30.03,29.98,15,4,15,0.00
2013-3-27,56,52,48,52,50,47,97,93,82,30.04,29.96,14,2,16,0.00
2013-3-28,59,54,52,56,52,50,98,94,85,30.11,30.01,11,2,13,0.02
2013-3-29,70,54,49,54,50,48,97,90,57,30.10,30.04,15,3,17,0.00
2013-3-30,63,54,50,54,52,50,98,91,67,30.09,29.99,17,3,23,0.10
2013-3-31,61,56,52,55,53,51,97,89,74,30.08,30.01,17,3,19,0.15
2013-4-1,58,54,51,54,52,50,97,94,82,30.17,30.06,12,2,13,0.34
2013-4-2,54,50,48,51,49,47,97,96,90,30.22,30.13,14,3,14,0.01
2013-4-3,70,51,47,58,49,46,100,92,44,30.17,30.02,14,2,16,0.00
2013-4-4,59,54,49,56,53,48,98,96,89,30.14,30.01,20,5,23,0.27
2013-4-5,58,54,51,56,52,50,99,96,83,30.22,30.13,14,3,16,0.05
2013-4-6,56,53,51,55,52,50,99,97,92,30.22,30.17,13,4,14,0.02
2013-4-7,56,53,51,54,51,47,97,92,82,30.20,29.87,26,6,33,0.03
2013-4-8,57,51,46,48,43,38,91,75,58,30.04,29.81,33,7,42,0.01
2013-4-9,64,57,50,50,42,33,84,59,34,30.12,30.05,14,0,15,0.00
2013-4-10,66,57,50,52,49,43,95,75,50,30.20,30.09,15,2,20,0.00
2013-4-11,61,51,48,49,47,45,96,86,64,30.10,29.88,22,3,22,0.00
2013-4-12,56,50,46,50,46,45,96,90,79,29.95,29.88,18,3,19,0.00
2013-4-13,55,50,47,49,45,43,93,84,72,29.93,29.86,28,5,31,0.00
2013-4-14,54,49,44,45,42,40,94,79,64,29.96,29.90,26,4,29,0.00
2013-4-15,51,47,44,48,41,38,96,81,67,29.98,29.88,37,7,39,0.00
2013-4-16,56,50,44,45,40,33,83,69,48,30.18,29.98,21,2,21,0.00
2013-4-17,62,55,48,45,37,28,89,53,28,30.29,30.18,20,2,22,0.00
2013-4-18,67,53,47,49,45,36,94,76,33,30.29,30.22,10,1,11,0.00
2013-4-19,61,53,47,52,48,45,95,84,68,30.25,30.10,13,2,14,0.00
2013-4-20,62,52,47,51,48,46,96,85,65,30.13,30.03,12,2,15,0.01
2013-4-21,71,58,48,53,48,45,92,73,44,30.06,29.96,11,1,11,0.00
2013-4-22,80,63,49,52,48,40,93,60,25,29.98,29.88,14,2,14,0.00
2013-4-23,70,56,47,50,42,26,96,67,20,29.97,29.87,18,4,21,0.00
2013-4-24,53,50,46,50,48,45,96,93,87,29.97,29.85,20,4,21,0.00
2013-4-25,57,53,50,52,50,47,96,89,80,30.15,29.97,16,5,19,0.00
2013-4-26,54,50,48,49,47,46,94,89,82,30.26,30.14,18,4,18,0.00
2013-4-27,52,48,47,50,47,46,100,95,88,30.26,30.11,14,3,17,0.00
2013-4-28,60,53,48,52,49,46,95,87,72,30.11,29.91,9,2,11,0.00
2013-4-29,67,58,51,56,51,48,92,79,63,29.94,29.81,12,2,14,0.00
2013-4-30,64,54,48,51,47,37,93,77,43,29.89,29.81,12,2,13,0.00
2013-5-1,71,61,52,51,40,23,91,54,18,30.10,29.86,16,2,19,0.00
2013-5-2,85,68,54,51,40,30,74,40,15,30.16,30.10,19,3,19,0.00
2013-5-3,69,60,52,52,47,36,91,64,38,30.10,29.82,10,2,10,0.00
2013-5-4,62,55,51,54,51,46,95,85,72,29.82,29.60,22,4,27,0.00
2013-5-5,64,58,53,52,50,48,83,73,60,29.82,29.62,24,4,26,0.00
2013-5-6,65,59,55,54,52,49,90,78,59,29.99,29.82,13,2,15,0.00
2013-5-7,62,56,52,55,53,50,97,90,78,30.07,29.97,15,3,15,0.00
2013-5-8,56,52,50,51,50,48,97,92,85,30.17,30.06,15,5,19,0.00
2013-5-9,54,52,50,50,49,48,93,89,83,30.21,30.13,19,5,22,0.00
2013-5-10,53,51,49,51,49,48,100,96,92,30.22,30.15,20,6,22,0.00
2013-5-11,58,52,49,56,50,48,98,95,86,30.19,30.10,13,4,17,0.00
2013-5-12,57,54,51,54,52,50,98,95,87,30.19,30.07,15,5,17,0.00
2013-5-13,57,53,50,54,52,49,98,94,83,30.13,29.99,17,7,21,0.00
2013-5-14,58,54,50,52,50,47,96,87,77,30.04,29.95,25,7,28,0.00
2013-5-15,57,52,49,52,49,47,96,89,79,30.09,30.02,25,7,27,0.00
2013-5-16,56,53,51,55,52,50,98,96,89,30.06,29.99,22,5,25,0.01
2013-5-17,58,53,50,52,50,49,96,89,77,30.11,30.00,25,8,27,0.00
2013-5-18,60,54,49,53,50,47,95,86,72,30.16,30.08,19,3,26,0.00
2013-5-19,63,55,49,54,50,48,96,83,65,30.14,30.02,13,1,16,0.00
2013-5-20,68,56,50,56,51,48,94,83,62,30.04,29.96,18,3,19,0.01
2013-5-21,57,52,48,50,48,42,93,84,74,30.04,29.94,31,9,35,0.00
2013-5-22,54,50,46,45,41,36,88,72,53,30.04,29.94,26,4,28,0.00
2013-5-23,56,51,47,48,45,43,90,81,67,30.04,29.94,21,4,21,0.00
2013-5-24,57,51,45,49,46,43,94,84,71,30.04,29.98,26,4,28,0.00
2013-5-25,55,51,47,50,47,45,95,88,78,30.08,29.98,28,6,28,0.00
2013-5-26,57,53,50,54,51,49,98,95,87,30.16,30.07,19,5,19,0.01
2013-5-27,55,53,50,54,52,50,98,97,95,30.16,30.02,14,3,14,0.06
2013-5-28,58,54,52,56,53,51,99,96,89,30.03,29.96,18,3,19,0.02
2013-5-29,59,54,51,54,52,48,97,90,77,30.01,29.94,25,5,25,0.00
2013-5-30,60,54,48,51,48,47,96,84,69,30.02,29.96,19,2,21,0.00
2013-5-31,64,55,48,52,49,46,94,82,64,30.05,29.96,15,2,16,0.00
2013-6-1,62,55,49,52,50,47,93,82,70,29.97,29.82,12,2,13,0.00
2013-6-2,57,52,49,52,49,48,97,92,82,29.83,29.72,19,6,20,0.00
2013-6-3,60,54,50,54,51,48,96,90,78,29.88,29.75,24,4,25,0.00
2013-6-4,58,54,51,54,51,50,96,92,84,29.99,29.87,19,7,21,0.00
2013-6-5,56,53,51,52,50,49,96,91,85,30.03,29.96,19,5,19,0.00
2013-6-6,57,52,50,52,50,49,98,94,83,29.98,29.90,17,6,20,0.00
2013-6-7,60,54,50,57,52,50,98,93,82,29.93,29.77,14,3,16,0.00
2013-6-8,58,55,51,56,53,50,97,93,89,29.83,29.75,25,4,27,0.00
2013-6-9,57,55,54,56,54,53,100,97,94,29.91,29.82,23,7,24,0.00
2013-6-10,62,56,53,55,53,52,100,89,75,29.98,29.83,21,5,22,0.00
2013-6-11,60,55,52,54,52,50,96,89,77,30.01,29.93,12,3,15,0.00
2013-6-12,61,55,50,53,50,49,94,85,73,30.03,29.93,19,4,22,0.00
2013-6-13,62,55,48,52,50,46,94,83,69,30.13,30.02,17,2,17,0.00
2013-6-14,65,56,50,55,51,48,93,84,68,30.02,29.88,15,3,17,0.01
2013-6-15,53,51,49,50,49,48,97,95,91,30.03,29.86,24,7,25,0.00
2013-6-16,58,53,50,54,50,48,96,91,83,30.13,30.02,19,6,22,0.00
2013-6-17,60,54,50,56,53,49,98,94,85,30.13,30.06,23,6,25,0.00
2013-6-18,58,54,52,54,52,51,98,94,85,30.07,30.02,21,6,25,0.00
2013-6-19,60,55,51,53,51,48,96,85,70,30.09,30.03,26,5,27,0.00
2013-6-20,61,55,49,52,50,47,95,84,70,30.04,29.99,26,3,26,0.00
2013-6-21,59,54,50,53,51,49,96,88,76,30.02,29.95,19,4,19,0.00
2013-6-22,62,55,50,55,52,48,97,87,74,29.97,29.90,22,3,22,0.00
2013-6-23,59,55,52,58,55,51,99,98,97,29.91,29.84,15,5,17,0.03
2013-6-24,57,55,53,57,54,52,99,98,98,29.92,29.81,12,1,13,0.03
2013-6-25,67,62,57,64,61,57,98,96,89,30.01,29.90,19,3,24,0.10
2013-6-26,68,62,58,64,61,57,100,94,83,30.08,29.98,11,1,12,0.01
2013-6-27,68,61,56,61,58,56,98,91,74,30.11,30.04,12,-2,18,0.01
2013-6-28,65,60,55,61,57,54,98,90,78,30.06,29.94,13,2,14,0.00
2013-6-29,67,61,56,58,56,54,93,84,71,29.95,29.85,14,3,16,0.00
2013-6-30,61,58,55,57,55,54,96,91,84,29.88,29.81,18,6,18,0.00
2013-7-1,69,58,54,60,55,53,100,92,72,29.90,29.83,15,3,17,0.00
2013-7-2,63,57,54,58,56,54,98,96,85,29.95,29.85,20,6,21,0.00
2013-7-3,68,59,55,63,57,55,99,93,76,29.94,29.80,15,4,17,0.00
2013-7-4,64,60,55,59,56,51,98,87,74,29.82,29.73,17,4,19,0.00
2013-7-5,57,55,52,53,52,51,96,91,85,29.81,29.74,20,7,24,0.00
2013-7-6,58,54,52,54,52,51,96,92,86,29.84,29.78,19,8,23,0.00
2013-7-7,60,56,53,55,53,52,95,91,83,29.89,29.81,18,5,20,0.00
2013-7-8,60,56,53,55,53,52,97,92,83,30.00,29.88,18,5,19,0.00
2013-7-9,59,55,51,57,53,50,98,95,85,30.06,29.98,13,3,15,0.00
2013-7-10,58,54,52,55,53,51,98,96,90,30.01,29.94,19,6,21,0.00
2013-7-11,55,53,50,53,51,50,98,95,90,29.98,29.92,19,6,21,0.00
2013-7-12,56,54,52,53,52,51,96,93,88,29.98,29.92,18,7,18,0.00
2013-7-13,59,55,52,55,52,51,97,93,83,29.99,29.92,18,6,21,0.00
2013-7-14,56,53,51,53,52,50,97,95,90,30.03,29.94,17,6,18,0.00
2013-7-15,58,53,50,54,52,49,98,96,89,29.95,29.88,21,6,22,0.00
2013-7-16,60,56,52,57,54,51,97,94,83,30.05,29.89,16,5,17,0.01
2013-7-17,59,56,53,56,54,52,98,94,86,30.12,30.04,15,5,18,0.00
2013-7-18,57,54,52,54,53,51,100,96,92,30.09,29.98,15,5,19,0.00
2013-7-19,57,53,52,55,52,51,98,97,92,29.98,29.88,16,7,19,0.00
2013-7-20,56,52,51,54,51,50,98,97,92,29.89,29.79,19,8,20,0.00
2013-7-21,56,53,51,54,52,50,99,97,92,29.91,29.80,20,8,20,0.00
2013-7-22,58,55,53,58,55,52,99,98,95,29.99,29.90,15,4,15,0.00
2013-7-23,62,57,54,58,56,54,99,96,86,30.04,29.96,14,4,15,0.00
2013-7-24,61,56,53,58,54,52,99,95,85,30.02,29.94,15,4,15,0.00
2013-7-25,57,54,52,56,53,51,99,97,92,30.05,29.95,16,7,18,0.01
2013-7-26,58,55,52,57,54,52,100,97,93,30.12,30.04,18,7,20,0.00
2013-7-27,58,54,53,57,54,52,100,97,92,30.06,29.90,18,8,20,0.00
2013-7-28,56,54,53,55,53,52,99,97,94,29.91,29.85,20,9,22,0.01
2013-7-29,59,55,53,55,54,52,97,93,86,30.04,29.87,25,9,26,0.00
2013-7-30,57,55,52,54,53,51,97,94,89,30.12,30.04,18,7,21,0.00
2013-7-31,60,55,51,55,53,50,98,94,84,30.12,30.04,25,8,25,0.00
2013-8-1,59,56,54,55,54,52,96,91,85,30.10,29.98,21,8,23,0.00
2013-8-2,58,54,51,55,52,50,98,94,86,30.01,29.94,13,3,15,0.00
2013-8-3,58,54,51,55,52,50,98,95,87,30.00,29.95,16,4,20,0.00
2013-8-4,56,54,52,54,52,51,98,96,89,30.04,29.99,19,6,22,0.00
2013-8-5,56,54,52,54,52,51,98,96,89,30.05,29.98,18,4,21,0.01
2013-8-6,59,55,52,56,54,52,98,95,86,30.06,29.99,19,6,21,0.01
2013-8-7,62,58,54,57,56,54,98,93,82,30.13,30.05,18,4,19,0.01
2013-8-8,62,57,53,58,55,52,98,94,83,30.05,29.96,25,3,25,0.05
2013-8-9,61,56,53,58,55,52,99,96,88,30.01,29.94,15,4,18,0.02
2013-8-10,61,57,55,57,56,54,98,95,87,30.08,30.01,19,6,20,0.00
2013-8-11,57,55,53,56,54,53,100,97,94,30.05,29.98,18,7,18,0.01
2013-8-12,61,56,53,58,54,52,100,96,87,30.03,29.96,15,6,16,0.00
2013-8-13,65,58,55,58,55,53,99,90,77,30.01,29.95,16,4,16,0.00
2013-8-14,63,58,53,60,56,52,98,94,84,30.01,29.94,15,5,19,0.00
2013-8-15,65,61,58,63,60,57,98,97,91,29.99,29.93,15,4,16,0.00
2013-8-16,60,58,56,60,58,56,99,98,96,30.02,29.95,15,4,15,0.00
2013-8-17,64,58,55,60,57,54,98,95,86,30.01,29.89,17,6,19,0.00
2013-8-18,64,59,55,62,57,54,98,93,85,29.91,29.81,14,2,14,0.00
2013-8-19,62,58,54,58,56,53,100,95,88,29.93,29.81,17,4,19,0.00
2013-8-20,63,58,56,60,57,55,98,94,85,29.92,29.86,19,6,22,0.00
2013-8-21,68,60,56,58,56,54,95,87,69,29.96,29.89,17,3,17,0.00
2013-8-22,63,59,56,56,55,54,94,87,78,29.99,29.91,21,3,22,0.00
2013-8-23,58,56,54,56,55,53,96,93,91,29.95,29.84,16,6,21,0.00
2013-8-24,62,58,55,59,56,54,98,95,87,29.93,29.86,18,6,21,0.00
2013-8-25,65,61,59,64,60,58,98,96,91,29.96,29.91,14,2,14,0.01
2013-8-26,62,59,58,59,57,56,97,93,84,30.03,29.92,16,3,18,0.02
2013-8-27,62,57,54,60,56,53,100,97,94,29.92,29.86,15,-3,19,0.00
2013-8-28,66,60,56,64,59,56,99,97,92,29.96,29.87,15,4,17,0.00
2013-8-29,67,61,59,63,60,58,99,96,86,30.08,29.96,15,3,15,0.01
2013-8-30,68,61,58,64,59,57,100,94,83,30.06,29.94,16,2,16,0.01
2013-8-31,61,58,55,60,57,54,98,97,95,30.01,29.92,18,6,19,0.00
2013-9-1,63,59,55,61,58,54,99,96,91,29.97,29.91,14,3,16,0.00
2013-9-2,68,63,59,66,61,59,99,95,84,29.98,29.90,16,3,19,0.00
2013-9-3,66,61,57,62,60,57,100,95,86,30.02,29.94,18,4,21,0.00
2013-9-4,67,61,58,62,60,57,98,94,85,30.05,29.96,20,6,24,0.00
2013-9-5,66,61,57,60,58,55,98,92,82,30.04,29.96,22,3,26,0.00
2013-9-6,76,66,55,61,56,52,96,71,47,30.00,29.84,12,1,12,0.01
2013-9-7,76,67,55,62,55,50,97,69,46,29.88,29.83,10,2,12,0.00
2013-9-8,62,56,54,60,56,53,100,97,92,29.89,29.80,11,3,12,0.00
2013-9-9,62,57,53,59,56,53,100,97,89,29.83,29.74,15,4,15,0.00
2013-9-10,65,60,56,62,58,56,99,94,85,29.91,29.76,23,7,27,0.01
2013-9-11,66,62,61,60,58,57,94,88,80,30.01,29.90,15,5,18,0.00
2013-9-12,64,60,57,62,59,56,98,96,88,29.99,29.91,16,3,20,0.02
2013-9-13,58,56,54,57,55,53,98,98,96,29.92,29.80,20,6,24,0.01
2013-9-14,61,57,54,59,56,53,99,96,90,29.84,29.77,21,7,23,0.00
2013-9-15,65,60,56,60,57,54,97,89,77,29.89,29.79,18,4,19,0.00
2013-9-16,64,59,56,61,57,56,98,94,79,29.91,29.81,21,4,23,0.00
2013-9-17,62,58,55,57,55,52,97,90,78,29.90,29.84,30,5,31,0.00
2013-9-18,68,59,53,58,53,51,94,83,60,29.93,29.85,14,1,16,0.00
2013-9-19,68,58,52,58,53,50,95,84,66,29.87,29.78,13,1,14,0.01
2013-9-20,66,59,53,63,58,52,98,95,88,29.88,29.78,13,4,15,0.01
2013-9-21,63,60,56,61,58,55,98,94,87,29.91,29.81,19,4,20,0.48
2013-9-22,64,58,53,58,55,52,98,91,79,30.02,29.91,16,1,18,0.01
2013-9-23,71,62,56,62,57,52,96,85,62,30.03,29.96,10,1,15,0.00
2013-9-24,64,59,55,59,55,53,95,89,82,30.02,29.92,23,-4,27,0.01
2013-9-25,61,56,53,53,51,48,94,83,70,29.95,29.84,27,4,27,0.00
2013-9-26,64,56,50,51,47,42,87,72,50,29.99,29.85,15,1,16,0.00
2013-9-27,72,62,53,51,44,38,89,54,31,30.10,29.99,11,1,13,0.00
2013-9-28,69,59,52,56,52,46,96,79,49,30.10,30.03,13,2,18,0.00
2013-9-29,68,61,55,62,58,54,98,93,80,30.12,30.06,11,2,12,0.00
2013-9-30,64,60,55,63,59,49,98,96,76,30.08,29.99,12,2,12,0.01
2013-10-1,63,57,52,54,52,50,96,84,67,30.02,29.94,11,2,15,0.00
2013-10-2,61,55,51,53,50,47,95,84,68,30.02,29.94,17,1,20,0.01
2013-10-3,68,58,50,49,45,33,86,63,28,30.09,29.96,18,1,20,0.00
2013-10-4,77,69,62,40,33,29,37,28,17,30.09,29.97,26,5,33,0.00
2013-10-5,83,70,63,44,35,28,48,28,14,30.18,30.09,11,2,12,0.00
2013-10-6,82,69,61,44,37,30,49,32,19,30.11,29.99,13,2,14,0.00
2013-10-7,71,61,53,51,44,33,89,56,30,29.99,29.89,10,2,12,0.00
2013-10-8,63,55,50,53,50,48,93,84,67,29.92,29.73,12,2,13,0.00
2013-10-9,61,55,49,50,48,44,91,77,57,29.78,29.64,9,2,12,0.00
2013-10-10,58,53,50,52,50,48,94,89,78,30.03,29.77,14,4,17,0.01
2013-10-11,54,51,49,50,49,48,96,92,85,30.10,30.00,12,2,15,0.00
2013-10-12,55,51,48,51,49,47,97,92,83,30.02,29.93,15,3,16,0.00
2013-10-13,65,55,50,55,50,46,97,85,51,30.07,29.94,10,1,11,0.01
2013-10-14,73,61,50,53,46,39,89,61,34,30.12,30.02,13,2,13,0.00
2013-10-15,77,64,56,51,41,35,77,45,24,30.04,29.96,16,1,17,0.00
2013-10-16,80,67,58,50,40,34,73,39,22,30.08,29.99,11,1,13,0.00
2013-10-17,76,64,52,51,44,35,92,52,28,30.07,29.98,10,1,11,0.00
2013-10-18,57,51,48,53,49,47,100,93,81,30.06,29.99,9,1,10,0.00
2013-10-19,73,54,47,58,50,46,98,87,45,30.09,30.02,9,1,10,0.01
2013-10-20,54,50,47,53,48,46,98,96,93,30.04,29.95,11,3,12,0.00
2013-10-21,53,49,48,52,48,47,98,97,95,30.02,29.95,11,2,13,0.00
2013-10-22,56,50,48,55,49,48,98,97,95,30.03,29.96,13,2,13,0.01
2013-10-23,52,49,47,51,49,46,98,98,97,30.00,29.94,13,3,14,0.00
2013-10-24,56,51,49,51,49,48,97,93,82,30.12,29.99,13,4,13,0.00
2013-10-25,61,54,49,54,50,47,95,88,76,30.18,30.09,12,1,12,0.00
2013-10-26,65,54,49,56,51,48,100,91,71,30.15,30.04,10,1,11,0.01
2013-10-27,54,51,48,53,50,48,98,94,87,30.05,29.70,32,8,36,0.00
2013-10-28,56,52,49,51,50,47,94,90,82,29.86,29.68,26,5,31,0.00
2013-10-29,58,54,50,51,50,46,95,87,71,30.06,29.85,11,2,13,0.00
2013-10-30,63,53,48,54,49,47,96,87,69,30.16,30.06,8,1,10,0.01
2013-10-31,68,56,49,53,49,43,94,78,51,30.18,30.09,10,2,10,0.00
2013-11-1,71,60,52,52,48,43,89,66,41,30.14,30.01,12,2,12,0.00
2013-11-2,58,53,49,54,49,46,97,88,65,30.03,29.93,14,2,20,0.00
2013-11-3,58,52,47,48,44,39,92,75,52,30.07,29.93,14,1,15,0.00
2013-11-4,62,54,45,47,42,36,87,67,45,30.08,29.92,9,1,11,0.00
2013-11-5,68,58,51,49,40,34,90,53,31,30.22,30.06,10,1,13,0.00
2013-11-6,68,61,52,47,42,37,80,49,38,30.25,30.15,10,2,13,0.00
2013-11-7,69,58,52,52,46,40,95,67,40,30.17,30.08,11,2,11,0.00
2013-11-8,67,55,50,56,51,48,96,86,64,30.09,29.98,12,2,13,0.01
2013-11-9,68,55,48,52,50,47,95,85,55,30.05,29.97,12,2,12,0.00
2013-11-10,59,54,50,52,50,48,95,89,75,30.13,30.03,13,2,14,0.01
2013-11-11,62,55,51,53,50,47,92,85,71,30.18,30.06,11,1,21,0.00
2013-11-12,66,58,54,54,51,48,94,78,59,30.27,30.15,10,1,11,0.00
2013-11-13,64,55,51,57,52,50,97,91,73,30.26,30.12,12,3,14,0.00
2013-11-14,54,52,50,53,50,48,98,96,90,30.12,29.90,17,4,20,0.01
2013-11-15,59,52,48,50,48,44,93,86,67,29.91,29.75,16,2,20,0.00
2013-11-16,57,51,45,51,48,43,96,88,66,29.94,29.77,19,2,22,0.01
2013-11-17,56,51,49,50,48,46,96,89,75,30.10,29.94,12,2,14,0.00
2013-11-18,56,51,48,50,48,46,95,90,75,30.16,30.09,12,2,14,0.00
2013-11-19,58,55,52,56,52,48,96,90,82,30.11,29.95,13,2,13,0.29
2013-11-20,57,54,50,56,54,48,100,97,93,29.95,29.84,14,3,15,0.59
2013-11-21,61,55,50,50,38,26,96,59,28,29.97,29.90,24,4,28,0.02
2013-11-22,69,60,55,46,25,17,58,27,15,30.02,29.91,20,3,23,0.00
2013-11-23,65,56,50,50,36,22,92,51,24,30.10,29.94,25,3,26,0.00
2013-11-24,62,53,48,49,46,42,93,78,51,30.25,30.09,9,1,10,0.01
2013-11-25,62,54,48,47,45,42,91,73,54,30.32,30.25,12,3,14,0.00
2013-11-26,61,54,50,46,44,42,82,70,52,30.26,30.02,14,3,14,0.00
2013-11-27,62,55,50,48,46,44,84,71,56,30.03,29.85,12,2,14,0.00
2013-11-28,68,56,52,48,45,42,82,67,42,30.07,29.86,10,1,10,0.00
2013-11-29,68,56,50,53,47,41,94,74,44,30.22,30.07,10,1,13,0.00
2013-11-30,62,52,48,54,49,46,96,90,72,30.27,30.20,8,1,9,0.01
2013-12-1,68,57,50,51,48,44,94,75,46,30.34,30.23,11,2,11,0.00
2013-12-2,56,52,48,54,50,47,97,94,86,30.23,29.98,21,4,21,0.02
2013-12-3,54,49,43,53,40,28,97,72,56,29.97,29.86,23,5,24,0.00
2013-12-4,50,44,38,35,29,24,73,57,40,30.09,29.95,10,1,11,0.00
2013-12-5,50,42,36,34,28,19,76,58,31,30.17,30.08,12,1,14,0.00
2013-12-6,50,45,39,48,38,30,93,77,50,30.19,29.93,29,3,37,0.30
2013-12-7,48,43,38,46,32,26,94,67,47,30.25,29.94,20,2,24,0.02
2013-12-8,44,39,35,32,26,20,81,60,40,30.32,30.22,13,2,16,0.00
2013-12-9,50,41,34,32,22,14,72,48,23,30.42,30.32,20,2,23,0.00
2013-12-10,52,44,39,34,31,27,76,61,39,30.40,30.21,11,2,14,0.00
2013-12-11,55,48,41,37,32,28,78,57,36,30.24,30.17,13,2,17,0.00
2013-12-12,58,48,43,46,39,35,93,71,43,30.27,30.17,12,2,12,0.00
2013-12-13,58,49,44,46,43,36,95,82,45,30.33,30.23,7,1,9,0.01
2013-12-14,61,52,44,46,40,36,95,66,41,30.38,30.30,17,3,18,0.00
2013-12-15,59,52,46,42,39,35,84,61,47,30.36,30.23,15,3,15,0.00
2013-12-16,67,57,50,40,37,36,67,48,33,30.23,30.11,13,3,15,0.00
2013-12-17,64,56,51,45,40,36,65,56,46,30.16,30.02,16,4,17,0.00
2013-12-18,56,50,48,48,44,37,93,80,51,30.03,29.77,26,5,26,0.00
2013-12-19,54,50,45,46,39,24,91,67,35,29.95,29.73,22,2,28,0.00
2013-12-20,56,49,44,46,33,18,92,56,29,30.02,29.93,10,0,10,0.00
2013-12-21,56,51,47,51,48,44,95,89,79,30.09,29.98,4,0,5,0.01
2013-12-22,65,55,48,48,43,40,93,67,42,30.29,30.09,8,1,9,0.01
2013-12-23,61,53,48,47,42,40,87,66,50,30.38,30.28,11,2,12,0.00
2013-12-24,68,57,50,47,42,40,70,59,42,30.34,30.21,10,2,11,0.00
2013-12-25,64,57,51,43,41,36,71,55,46,30.27,30.19,18,3,18,0.00
2013-12-26,65,56,49,44,40,37,76,55,39,30.24,30.16,13,6,15,0.00
2013-12-27,59,54,50,44,40,37,71,59,50,30.21,30.12,14,4,16,0.00
2013-12-28,61,53,44,43,38,31,73,57,35,30.15,30.04,14,1,14,0.00
2013-12-29,66,58,51,36,28,20,55,34,19,30.16,30.08,16,3,18,0.00
2013-12-30,62,52,48,48,41,34,93,67,40,30.25,30.15,13,3,15,0.00
2013-12-31,59,50,44,48,43,38,94,80,55,30.27,30.17,9,1,10,0.00
2014-1-1,65,54,47,48,41,34,85,64,38,30.21,30.13,10,3,11,0.00
2014-1-2,63,56,50,40,38,36,62,51,38,30.17,30.04,14,4,16,0.00